createdAt,value
2023-03-13T00:00:32.894Z,0
2023-03-13T00:01:32.900Z,0
2023-03-13T00:02:32.970Z,0
2023-03-13T00:03:32.894Z,0
2023-03-13T00:04:32.990Z,0
2023-03-13T00:05:32.900Z,0
2023-03-13T00:06:32.898Z,0
2023-03-13T00:07:32.901Z,0
2023-03-13T00:08:32.898Z,0
2023-03-13T00:09:32.904Z,0
2023-03-13T00:10:32.896Z,0
2023-03-13T00:11:32.918Z,0
2023-03-13T00:12:32.901Z,0
2023-03-13T00:13:32.927Z,0
2023-03-13T00:14:32.907Z,0
2023-03-13T00:15:32.900Z,0
2023-03-13T00:16:32.945Z,0
2023-03-13T00:17:32.921Z,0
2023-03-13T00:18:32.904Z,0
2023-03-13T00:19:32.911Z,0
2023-03-13T00:20:32.944Z,0
2023-03-13T00:21:32.921Z,0
2023-03-13T00:22:32.915Z,0
2023-03-13T00:23:32.916Z,0
2023-03-13T00:24:32.914Z,0
2023-03-13T00:25:32.923Z,0
2023-03-13T00:26:32.918Z,0
2023-03-13T00:27:32.921Z,0
2023-03-13T00:28:32.980Z,0
2023-03-13T00:29:32.952Z,0
2023-03-13T00:30:32.971Z,0
2023-03-13T00:31:33.060Z,0
2023-03-13T00:32:33.021Z,0
2023-03-13T00:33:32.955Z,0
2023-03-13T00:34:32.935Z,0
2023-03-13T00:35:33.010Z,0
2023-03-13T00:36:32.946Z,0
2023-03-13T00:37:32.942Z,0
2023-03-13T00:38:32.937Z,0
2023-03-13T00:39:32.943Z,0
2023-03-13T00:40:32.944Z,0
2023-03-13T00:41:32.972Z,0
2023-03-13T00:42:32.944Z,0
2023-03-13T00:43:32.945Z,0
2023-03-13T00:44:32.948Z,0
2023-03-13T00:45:32.971Z,0
2023-03-13T00:46:33.005Z,0
2023-03-13T00:47:32.949Z,0
2023-03-13T00:48:32.944Z,0
2023-03-13T00:49:32.953Z,0
2023-03-13T00:50:32.946Z,0
2023-03-13T00:51:32.952Z,0
2023-03-13T00:52:32.950Z,0
2023-03-13T00:53:32.952Z,0
2023-03-13T00:54:32.965Z,0
2023-03-13T00:55:32.952Z,46
2023-03-13T00:56:32.961Z,0
2023-03-13T00:57:32.961Z,0
2023-03-13T00:58:32.959Z,0
2023-03-13T00:59:32.964Z,0
2023-03-13T01:00:32.965Z,0
2023-03-13T01:01:33.006Z,0
2023-03-13T01:02:33.127Z,0
2023-03-13T01:03:32.998Z,0
2023-03-13T01:04:32.975Z,0
2023-03-13T01:05:32.982Z,0
2023-03-13T01:06:32.992Z,0
2023-03-13T01:07:32.984Z,0
2023-03-13T01:08:32.987Z,0
2023-03-13T01:09:32.986Z,0
2023-03-13T01:10:32.987Z,0
2023-03-13T01:11:33.002Z,0
2023-03-13T01:12:32.998Z,0
2023-03-13T01:13:33.027Z,0
2023-03-13T01:14:32.997Z,0
2023-03-13T01:15:33.004Z,0
2023-03-13T01:16:33.006Z,0
2023-03-13T01:17:33.129Z,0
2023-03-13T01:18:33.003Z,0
2023-03-13T01:19:33.001Z,0
2023-03-13T01:20:33.010Z,0
2023-03-13T01:21:33.050Z,0
2023-03-13T01:22:33.009Z,0
2023-03-13T01:23:33.016Z,0
2023-03-13T01:24:33.014Z,0
2023-03-13T01:25:33.010Z,0
2023-03-13T01:26:33.015Z,0
2023-03-13T01:27:33.023Z,0
2023-03-13T01:28:33.016Z,0
2023-03-13T01:29:33.017Z,0
2023-03-13T01:30:33.019Z,0
2023-03-13T01:31:33.121Z,0
2023-03-13T01:32:33.097Z,0
2023-03-13T01:33:33.051Z,0
2023-03-13T01:34:33.024Z,0
2023-03-13T01:35:33.148Z,0
2023-03-13T01:36:33.040Z,0
2023-03-13T01:37:33.030Z,0
2023-03-13T01:38:33.029Z,0
2023-03-13T01:39:33.029Z,0
2023-03-13T01:40:33.037Z,0
2023-03-13T01:41:33.036Z,0
2023-03-13T01:42:33.035Z,0
2023-03-13T01:43:33.038Z,0
2023-03-13T01:44:33.036Z,0
2023-03-13T01:45:33.057Z,0
2023-03-13T01:46:33.143Z,0
2023-03-13T01:47:33.043Z,0
2023-03-13T01:48:33.040Z,0
2023-03-13T01:49:33.070Z,0
2023-03-13T01:50:33.047Z,0
2023-03-13T01:51:33.057Z,0
2023-03-13T01:52:33.048Z,0
2023-03-13T01:53:33.056Z,0
2023-03-13T01:54:33.063Z,0
2023-03-13T01:55:33.052Z,0
2023-03-13T01:56:33.068Z,0
2023-03-13T01:57:33.064Z,0
2023-03-13T01:58:33.075Z,0
2023-03-13T01:59:33.066Z,0
2023-03-13T02:00:33.064Z,0
2023-03-13T02:01:33.099Z,0
2023-03-13T02:02:33.097Z,0
2023-03-13T02:03:33.068Z,0
2023-03-13T02:04:33.098Z,0
2023-03-13T02:05:33.095Z,0
2023-03-13T02:06:33.088Z,0
2023-03-13T02:07:33.074Z,0
2023-03-13T02:08:33.073Z,0
2023-03-13T02:09:33.092Z,0
2023-03-13T02:10:33.077Z,0
2023-03-13T02:11:33.074Z,0
2023-03-13T02:12:33.075Z,0
2023-03-13T02:13:33.073Z,0
2023-03-13T02:14:33.080Z,0
2023-03-13T02:15:33.092Z,0
2023-03-13T02:16:33.078Z,0
2023-03-13T02:17:33.078Z,0
2023-03-13T02:18:33.079Z,0
2023-03-13T02:19:33.078Z,0
2023-03-13T02:20:33.099Z,0
2023-03-13T02:21:33.110Z,0
2023-03-13T02:22:33.081Z,0
2023-03-13T02:23:33.085Z,0
2023-03-13T02:24:33.086Z,0
2023-03-13T02:25:33.101Z,0
2023-03-13T02:26:33.090Z,0
2023-03-13T02:27:33.092Z,0
2023-03-13T02:28:33.094Z,0
2023-03-13T02:29:33.092Z,0
2023-03-13T02:30:33.097Z,0
2023-03-13T02:31:33.200Z,0
2023-03-13T02:32:33.168Z,0
2023-03-13T02:33:33.111Z,0
2023-03-13T02:34:33.100Z,0
2023-03-13T02:35:33.194Z,0
2023-03-13T02:36:33.104Z,0
2023-03-13T02:37:33.132Z,0
2023-03-13T02:38:33.116Z,0
2023-03-13T02:39:33.106Z,0
2023-03-13T02:40:33.105Z,0
2023-03-13T02:41:33.118Z,0
2023-03-13T02:42:33.111Z,0
2023-03-13T02:43:33.119Z,0
2023-03-13T02:44:33.110Z,0
2023-03-13T02:45:33.129Z,0
2023-03-13T02:46:33.202Z,0
2023-03-13T02:47:33.116Z,0
2023-03-13T02:48:33.123Z,0
2023-03-13T02:49:33.118Z,0
2023-03-13T02:50:33.122Z,0
2023-03-13T02:51:33.145Z,0
2023-03-13T02:52:33.126Z,0
2023-03-13T02:53:33.149Z,0
2023-03-13T02:54:33.127Z,0
2023-03-13T02:55:33.132Z,0
2023-03-13T02:56:33.126Z,0
2023-03-13T02:57:33.128Z,0
2023-03-13T02:58:33.669Z,0
2023-03-13T02:59:33.128Z,0
2023-03-13T03:00:33.194Z,0
2023-03-13T03:01:33.139Z,0
2023-03-13T03:02:33.132Z,0
2023-03-13T03:03:33.175Z,0
2023-03-13T03:04:33.139Z,0
2023-03-13T03:05:33.141Z,0
2023-03-13T03:06:33.145Z,0
2023-03-13T03:07:33.135Z,0
2023-03-13T03:08:33.135Z,0
2023-03-13T03:09:33.166Z,0
2023-03-13T03:10:33.142Z,0
2023-03-13T03:11:33.154Z,0
2023-03-13T03:12:33.144Z,0
2023-03-13T03:13:33.146Z,0
2023-03-13T03:14:33.155Z,0
2023-03-13T03:15:33.145Z,0
2023-03-13T03:16:33.234Z,0
2023-03-13T03:17:33.154Z,0
2023-03-13T03:18:34.647Z,0
2023-03-13T03:19:33.149Z,0
2023-03-13T03:20:33.163Z,0
2023-03-13T03:21:33.146Z,0
2023-03-13T03:22:33.149Z,0
2023-03-13T03:23:33.156Z,0
2023-03-13T03:24:33.150Z,0
2023-03-13T03:25:33.172Z,0
2023-03-13T03:26:33.163Z,0
2023-03-13T03:27:33.154Z,0
2023-03-13T03:28:33.171Z,0
2023-03-13T03:29:33.152Z,0
2023-03-13T03:30:33.152Z,0
2023-03-13T03:31:33.205Z,0
2023-03-13T03:32:33.184Z,0
2023-03-13T03:33:33.152Z,0
2023-03-13T03:34:33.163Z,0
2023-03-13T03:35:33.193Z,0
2023-03-13T03:36:33.158Z,0
2023-03-13T03:37:33.162Z,0
2023-03-13T03:38:33.164Z,0
2023-03-13T03:39:33.161Z,0
2023-03-13T03:40:33.162Z,0
2023-03-13T03:41:33.191Z,0
2023-03-13T03:42:33.161Z,0
2023-03-13T03:43:33.162Z,0
2023-03-13T03:44:33.170Z,0
2023-03-13T03:45:33.210Z,0
2023-03-13T03:46:33.170Z,0
2023-03-13T03:47:33.167Z,0
2023-03-13T03:48:33.169Z,0
2023-03-13T03:49:33.188Z,0
2023-03-13T03:50:33.169Z,0
2023-03-13T03:51:33.173Z,0
2023-03-13T03:52:33.169Z,0
2023-03-13T03:53:33.170Z,0
2023-03-13T03:54:33.171Z,0
2023-03-13T03:55:35.088Z,46
2023-03-13T03:56:33.169Z,0
2023-03-13T03:57:33.203Z,0
2023-03-13T03:58:33.177Z,0
2023-03-13T03:59:33.175Z,0
2023-03-13T04:00:33.174Z,0
2023-03-13T04:01:33.177Z,0
2023-03-13T04:02:33.243Z,0
2023-03-13T04:03:33.238Z,0
2023-03-13T04:04:33.192Z,0
2023-03-13T04:05:33.199Z,0
2023-03-13T04:06:33.183Z,0
2023-03-13T04:07:33.212Z,0
2023-03-13T04:08:33.190Z,0
2023-03-13T04:09:33.187Z,0
2023-03-13T04:10:33.190Z,0
2023-03-13T04:11:33.187Z,0
2023-03-13T04:12:33.188Z,0
2023-03-13T04:13:33.213Z,0
2023-03-13T04:14:33.185Z,0
2023-03-13T04:15:33.191Z,0
2023-03-13T04:16:33.262Z,0
2023-03-13T04:17:33.186Z,0
2023-03-13T04:18:33.190Z,0
2023-03-13T04:19:33.194Z,0
2023-03-13T04:20:33.188Z,0
2023-03-13T04:21:33.192Z,0
2023-03-13T04:22:33.199Z,0
2023-03-13T04:23:33.192Z,0
2023-03-13T04:24:33.188Z,0
2023-03-13T04:25:33.190Z,0
2023-03-13T04:26:33.193Z,0
2023-03-13T04:27:33.191Z,0
2023-03-13T04:28:33.199Z,0
2023-03-13T04:29:33.223Z,0
2023-03-13T04:30:33.210Z,0
2023-03-13T04:31:33.195Z,0
2023-03-13T04:32:33.254Z,0
2023-03-13T04:33:33.187Z,0
2023-03-13T04:34:33.196Z,0
2023-03-13T04:35:33.362Z,46
2023-03-13T04:36:33.192Z,0
2023-03-13T04:37:33.189Z,0
2023-03-13T04:38:33.192Z,0
2023-03-13T04:39:33.308Z,0
2023-03-13T04:40:33.196Z,0
2023-03-13T04:41:33.199Z,0
2023-03-13T04:42:33.197Z,0
2023-03-13T04:43:33.197Z,0
2023-03-13T04:44:33.202Z,0
2023-03-13T04:45:33.229Z,0
2023-03-13T04:46:33.334Z,0
2023-03-13T04:47:33.203Z,0
2023-03-13T04:48:33.201Z,0
2023-03-13T04:49:33.238Z,0
2023-03-13T04:50:33.207Z,0
2023-03-13T04:51:33.210Z,0
2023-03-13T04:52:33.211Z,0
2023-03-13T04:53:33.211Z,0
2023-03-13T04:54:33.209Z,0
2023-03-13T04:55:33.212Z,0
2023-03-13T04:56:43.060Z,0
2023-03-13T04:57:33.231Z,0
2023-03-13T04:58:33.229Z,0
2023-03-13T04:59:33.217Z,0
2023-03-13T05:00:33.229Z,0
2023-03-13T05:01:33.305Z,0
2023-03-13T05:02:33.232Z,0
2023-03-13T05:03:33.226Z,0
2023-03-13T05:04:33.307Z,0
2023-03-13T05:05:33.279Z,0
2023-03-13T05:06:33.231Z,0
2023-03-13T05:07:33.235Z,0
2023-03-13T05:08:33.232Z,0
2023-03-13T05:09:33.240Z,0
2023-03-13T05:10:33.245Z,0
2023-03-13T05:11:33.237Z,1
2023-03-13T05:12:33.236Z,1
2023-03-13T05:13:33.239Z,1
2023-03-13T05:14:33.238Z,1
2023-03-13T05:15:33.256Z,1
2023-03-13T05:16:33.242Z,2
2023-03-13T05:17:33.265Z,2
2023-03-13T05:18:33.240Z,2
2023-03-13T05:19:33.249Z,2
2023-03-13T05:20:33.242Z,2
2023-03-13T05:21:33.245Z,4
2023-03-13T05:22:33.248Z,4
2023-03-13T05:23:33.249Z,4
2023-03-13T05:24:33.252Z,4
2023-03-13T05:25:33.249Z,4
2023-03-13T05:26:33.252Z,8
2023-03-13T05:27:33.261Z,8
2023-03-13T05:28:33.253Z,8
2023-03-13T05:29:33.261Z,8
2023-03-13T05:30:33.259Z,8
2023-03-13T05:31:33.295Z,13
2023-03-13T05:32:33.291Z,13
2023-03-13T05:33:33.291Z,13
2023-03-13T05:34:33.260Z,13
2023-03-13T05:35:33.302Z,13
2023-03-13T05:36:33.270Z,20
2023-03-13T05:37:33.278Z,20
2023-03-13T05:38:33.272Z,20
2023-03-13T05:39:33.273Z,20
2023-03-13T05:40:33.275Z,20
2023-03-13T05:41:33.273Z,28
2023-03-13T05:42:33.275Z,28
2023-03-13T05:43:33.280Z,28
2023-03-13T05:44:33.280Z,28
2023-03-13T05:45:33.280Z,28
2023-03-13T05:46:33.337Z,38
2023-03-13T05:47:33.281Z,38
2023-03-13T05:48:33.281Z,38
2023-03-13T05:49:33.314Z,38
2023-03-13T05:50:33.289Z,38
2023-03-13T05:51:33.285Z,60
2023-03-13T05:52:33.287Z,60
2023-03-13T05:53:33.294Z,60
2023-03-13T05:54:33.295Z,60
2023-03-13T05:55:33.300Z,60
2023-03-13T05:56:33.293Z,69
2023-03-13T05:57:33.292Z,69
2023-03-13T05:58:33.295Z,69
2023-03-13T05:59:33.296Z,69
2023-03-13T06:00:33.295Z,69
2023-03-13T06:01:33.309Z,86
2023-03-13T06:02:33.306Z,86
2023-03-13T06:03:33.439Z,86
2023-03-13T06:04:33.420Z,86
2023-03-13T06:05:33.365Z,86
2023-03-13T06:06:33.295Z,173
2023-03-13T06:07:33.302Z,173
2023-03-13T06:08:33.303Z,173
2023-03-13T06:09:33.309Z,173
2023-03-13T06:10:33.302Z,173
2023-03-13T06:11:33.306Z,190
2023-03-13T06:12:33.310Z,190
2023-03-13T06:13:33.326Z,190
2023-03-13T06:14:33.309Z,190
2023-03-13T06:15:33.314Z,190
2023-03-13T06:16:33.346Z,227
2023-03-13T06:17:33.308Z,227
2023-03-13T06:18:33.311Z,227
2023-03-13T06:19:33.313Z,227
2023-03-13T06:20:33.314Z,227
2023-03-13T06:21:33.358Z,235
2023-03-13T06:22:33.317Z,235
2023-03-13T06:23:33.315Z,235
2023-03-13T06:24:33.318Z,235
2023-03-13T06:25:33.317Z,235
2023-03-13T06:26:33.323Z,169
2023-03-13T06:27:33.325Z,169
2023-03-13T06:28:33.322Z,169
2023-03-13T06:29:33.324Z,169
2023-03-13T06:30:33.327Z,169
2023-03-13T06:31:33.352Z,235
2023-03-13T06:32:33.498Z,235
2023-03-13T06:33:33.332Z,235
2023-03-13T06:34:33.341Z,235
2023-03-13T06:35:37.121Z,235
2023-03-13T06:36:33.354Z,285
2023-03-13T06:37:33.378Z,285
2023-03-13T06:38:33.335Z,285
2023-03-13T06:39:33.341Z,285
2023-03-13T06:40:33.341Z,285
2023-03-13T06:41:33.344Z,327
2023-03-13T06:42:33.344Z,327
2023-03-13T06:43:33.350Z,327
2023-03-13T06:44:33.353Z,327
2023-03-13T06:45:33.346Z,327
2023-03-13T06:46:33.482Z,323
2023-03-13T06:47:33.349Z,323
2023-03-13T06:48:33.359Z,323
2023-03-13T06:49:33.350Z,323
2023-03-13T06:50:33.353Z,323
2023-03-13T06:51:33.351Z,280
2023-03-13T06:52:42.969Z,280
2023-03-13T06:53:33.392Z,280
2023-03-13T06:54:33.362Z,280
2023-03-13T06:55:33.362Z,280
2023-03-13T06:56:33.359Z,253
2023-03-13T06:57:33.367Z,253
2023-03-13T06:58:33.361Z,253
2023-03-13T06:59:33.364Z,253
2023-03-13T07:00:33.387Z,253
2023-03-13T07:01:33.371Z,292
2023-03-13T07:02:33.372Z,292
2023-03-13T07:03:33.390Z,292
2023-03-13T07:04:33.375Z,292
2023-03-13T07:05:33.374Z,292
2023-03-13T07:06:33.384Z,272
2023-03-13T07:07:33.393Z,272
2023-03-13T07:08:33.425Z,272
2023-03-13T07:09:33.422Z,272
2023-03-13T07:10:33.384Z,272
2023-03-13T07:11:33.384Z,329
2023-03-13T07:12:33.390Z,329
2023-03-13T07:13:33.398Z,329
2023-03-13T07:14:33.392Z,329
2023-03-13T07:15:33.392Z,329
2023-03-13T07:16:33.448Z,403
2023-03-13T07:17:33.484Z,403
2023-03-13T07:18:33.397Z,403
2023-03-13T07:19:33.399Z,403
2023-03-13T07:20:33.442Z,594
2023-03-13T07:21:33.402Z,635
2023-03-13T07:22:33.405Z,635
2023-03-13T07:23:33.406Z,774
2023-03-13T07:24:33.457Z,735
2023-03-13T07:25:33.436Z,735
2023-03-13T07:26:33.478Z,735
2023-03-13T07:27:33.428Z,735
2023-03-13T07:28:34.477Z,735
2023-03-13T07:29:33.407Z,1164
2023-03-13T07:30:33.413Z,1164
2023-03-13T07:31:33.533Z,1164
2023-03-13T07:32:33.457Z,1164
2023-03-13T07:33:33.415Z,1164
2023-03-13T07:34:33.420Z,1050
2023-03-13T07:35:33.417Z,1050
2023-03-13T07:36:33.422Z,1050
2023-03-13T07:37:33.419Z,1050
2023-03-13T07:38:33.420Z,1050
2023-03-13T07:39:33.418Z,1396
2023-03-13T07:40:33.419Z,1396
2023-03-13T07:41:33.443Z,1396
2023-03-13T07:42:33.420Z,1396
2023-03-13T07:43:33.421Z,1396
2023-03-13T07:44:33.419Z,1199
2023-03-13T07:45:33.485Z,1199
2023-03-13T07:46:33.444Z,1199
2023-03-13T07:47:33.423Z,1199
2023-03-13T07:48:33.487Z,1199
2023-03-13T07:49:33.428Z,1332
2023-03-13T07:50:33.516Z,1332
2023-03-13T07:51:42.385Z,1332
2023-03-13T07:52:33.427Z,1332
2023-03-13T07:53:33.503Z,1332
2023-03-13T07:54:33.434Z,1488
2023-03-13T07:55:33.447Z,1488
2023-03-13T07:56:33.438Z,1488
2023-03-13T07:57:33.460Z,1488
2023-03-13T07:58:33.455Z,1488
2023-03-13T07:59:33.433Z,1527
2023-03-13T08:00:33.439Z,1527
2023-03-13T08:01:33.448Z,1527
2023-03-13T08:02:33.482Z,1527
2023-03-13T08:03:33.487Z,1527
2023-03-13T08:04:33.447Z,1670
2023-03-13T08:05:33.445Z,1670
2023-03-13T08:06:34.322Z,1670
2023-03-13T08:07:33.451Z,1670
2023-03-13T08:08:33.471Z,1670
2023-03-13T08:09:33.448Z,2529
2023-03-13T08:10:33.446Z,2529
2023-03-13T08:11:33.447Z,2529
2023-03-13T08:12:33.448Z,2529
2023-03-13T08:13:33.472Z,2529
2023-03-13T08:14:33.446Z,2494
2023-03-13T08:15:33.445Z,2494
2023-03-13T08:16:33.489Z,2494
2023-03-13T08:17:33.446Z,2494
2023-03-13T08:18:33.442Z,2494
2023-03-13T08:19:33.445Z,2755
2023-03-13T08:20:33.447Z,2755
2023-03-13T08:21:33.445Z,2755
2023-03-13T08:22:33.458Z,2755
2023-03-13T08:23:33.466Z,2755
2023-03-13T08:24:33.451Z,4483
2023-03-13T08:25:33.464Z,4483
2023-03-13T08:26:33.448Z,4483
2023-03-13T08:27:33.448Z,4483
2023-03-13T08:28:33.451Z,4483
2023-03-13T08:29:33.483Z,4692
2023-03-13T08:30:33.472Z,4692
2023-03-13T08:31:33.456Z,4692
2023-03-13T08:32:33.507Z,4692
2023-03-13T08:33:33.455Z,4692
2023-03-13T08:34:33.454Z,7101
2023-03-13T08:35:33.590Z,7101
2023-03-13T08:36:33.455Z,7101
2023-03-13T08:37:33.455Z,7101
2023-03-13T08:38:33.469Z,7101
2023-03-13T08:39:33.458Z,2624
2023-03-13T08:40:33.461Z,2624
2023-03-13T08:41:33.499Z,2757
2023-03-13T08:42:33.457Z,2585
2023-03-13T08:43:33.461Z,2585
2023-03-13T08:44:33.471Z,2585
2023-03-13T08:45:33.492Z,2585
2023-03-13T08:46:33.536Z,2585
2023-03-13T08:47:33.471Z,2032
2023-03-13T08:48:33.469Z,2032
2023-03-13T08:49:33.469Z,2032
2023-03-13T08:50:33.473Z,2032
2023-03-13T08:51:33.470Z,2032
2023-03-13T08:52:33.470Z,2004
2023-03-13T08:53:33.478Z,2004
2023-03-13T08:54:33.476Z,2004
2023-03-13T08:55:33.478Z,2004
2023-03-13T08:56:33.478Z,2004
2023-03-13T08:57:33.481Z,1457
2023-03-13T08:58:33.482Z,1457
2023-03-13T08:59:33.480Z,1457
2023-03-13T09:00:33.480Z,1457
2023-03-13T09:01:33.508Z,1457
2023-03-13T09:02:33.518Z,1441
2023-03-13T09:03:33.502Z,1441
2023-03-13T09:04:33.484Z,1441
2023-03-13T09:05:38.598Z,1441
2023-03-13T09:06:33.520Z,1441
2023-03-13T09:07:33.490Z,1538
2023-03-13T09:08:33.495Z,1538
2023-03-13T09:09:33.493Z,1538
2023-03-13T09:10:33.489Z,1538
2023-03-13T09:11:33.486Z,1538
2023-03-13T09:12:33.495Z,1708
2023-03-13T09:13:33.491Z,1708
2023-03-13T09:14:35.783Z,1708
2023-03-13T09:15:33.539Z,1708
2023-03-13T09:16:33.502Z,1708
2023-03-13T09:17:33.524Z,2321
2023-03-13T09:18:33.521Z,2321
2023-03-13T09:19:33.496Z,2321
2023-03-13T09:20:33.485Z,2321
2023-03-13T09:21:33.500Z,2321
2023-03-13T09:22:33.493Z,5972
2023-03-13T09:23:33.491Z,5972
2023-03-13T09:24:33.493Z,5972
2023-03-13T09:25:33.491Z,5972
2023-03-13T09:26:33.500Z,5972
2023-03-13T09:27:33.493Z,5196
2023-03-13T09:28:33.492Z,5196
2023-03-13T09:29:33.503Z,5196
2023-03-13T09:30:33.493Z,5196
2023-03-13T09:31:33.533Z,5196
2023-03-13T09:32:33.516Z,6981
2023-03-13T09:33:33.526Z,6981
2023-03-13T09:34:33.496Z,5999
2023-03-13T09:35:33.488Z,7073
2023-03-13T09:36:33.493Z,6509
2023-03-13T09:37:33.496Z,5648
2023-03-13T09:38:33.496Z,5384
2023-03-13T09:39:33.501Z,4720
2023-03-13T09:40:33.496Z,5020
2023-03-13T09:41:33.493Z,4801
2023-03-13T09:42:33.501Z,3909
2023-03-13T09:43:33.493Z,3273
2023-03-13T09:44:33.495Z,3207
2023-03-13T09:45:33.502Z,3207
2023-03-13T09:46:33.569Z,3207
2023-03-13T09:47:33.494Z,3207
2023-03-13T09:48:33.498Z,3207
2023-03-13T09:49:33.655Z,2155
2023-03-13T09:50:33.499Z,2155
2023-03-13T09:51:33.502Z,2155
2023-03-13T09:52:33.515Z,2155
2023-03-13T09:53:33.505Z,2155
2023-03-13T09:54:33.506Z,2403
2023-03-13T09:55:33.502Z,2379
2023-03-13T09:56:33.504Z,2379
2023-03-13T09:57:33.511Z,2379
2023-03-13T09:58:33.508Z,2379
2023-03-13T09:59:33.507Z,2379
2023-03-13T10:00:33.504Z,2356
2023-03-13T10:01:33.554Z,2356
2023-03-13T10:02:33.509Z,2356
2023-03-13T10:03:33.509Z,2983
2023-03-13T10:04:33.562Z,2983
2023-03-13T10:05:33.535Z,2983
2023-03-13T10:06:33.511Z,2983
2023-03-13T10:07:33.513Z,2983
2023-03-13T10:08:33.511Z,2894
2023-03-13T10:09:33.513Z,2894
2023-03-13T10:10:33.527Z,2894
2023-03-13T10:11:33.531Z,2894
2023-03-13T10:12:33.515Z,2894
2023-03-13T10:13:33.521Z,1925
2023-03-13T10:14:33.520Z,1925
2023-03-13T10:15:33.523Z,1925
2023-03-13T10:16:33.598Z,1925
2023-03-13T10:17:33.522Z,1925
2023-03-13T10:18:33.537Z,2184
2023-03-13T10:19:33.566Z,2184
2023-03-13T10:20:33.533Z,2184
2023-03-13T10:21:33.550Z,2184
2023-03-13T10:22:33.528Z,2184
2023-03-13T10:23:33.539Z,2131
2023-03-13T10:24:33.520Z,2063
2023-03-13T10:25:33.522Z,2063
2023-03-13T10:26:33.521Z,2063
2023-03-13T10:27:33.523Z,1917
2023-03-13T10:28:33.523Z,1917
2023-03-13T10:29:33.528Z,1917
2023-03-13T10:30:33.521Z,1917
2023-03-13T10:31:33.572Z,1917
2023-03-13T10:32:33.539Z,1903
2023-03-13T10:33:33.528Z,1903
2023-03-13T10:34:33.529Z,1903
2023-03-13T10:35:33.648Z,1903
2023-03-13T10:36:33.532Z,1903
2023-03-13T10:37:33.565Z,2148
2023-03-13T10:38:33.529Z,2042
2023-03-13T10:39:33.530Z,2046
2023-03-13T10:40:33.530Z,2046
2023-03-13T10:41:33.530Z,2046
2023-03-13T10:42:33.571Z,2046
2023-03-13T10:43:33.534Z,2046
2023-03-13T10:44:33.549Z,1895
2023-03-13T10:45:33.538Z,1895
2023-03-13T10:46:33.555Z,1895
2023-03-13T10:47:33.540Z,1895
2023-03-13T10:48:33.539Z,1895
2023-03-13T10:49:33.537Z,1400
2023-03-13T10:50:33.538Z,1400
2023-03-13T10:51:33.541Z,1400
2023-03-13T10:52:33.545Z,1400
2023-03-13T10:53:33.561Z,1400
2023-03-13T10:54:33.535Z,1258
2023-03-13T10:55:33.541Z,1258
2023-03-13T10:56:33.542Z,1258
2023-03-13T10:57:33.546Z,1258
2023-03-13T10:58:33.543Z,1258
2023-03-13T10:59:33.538Z,1041
2023-03-13T11:00:33.545Z,1041
2023-03-13T11:01:33.541Z,1041
2023-03-13T11:02:33.660Z,1041
2023-03-13T11:03:33.744Z,1041
2023-03-13T11:04:33.551Z,999
2023-03-13T11:05:33.557Z,999
2023-03-13T11:06:33.545Z,995
2023-03-13T11:07:33.566Z,995
2023-03-13T11:08:33.559Z,995
2023-03-13T11:09:33.575Z,995
2023-03-13T11:10:33.548Z,995
2023-03-13T11:11:33.554Z,1024
2023-03-13T11:12:33.554Z,1024
2023-03-13T11:13:36.787Z,1024
2023-03-13T11:14:33.552Z,1024
2023-03-13T11:15:33.549Z,1024
2023-03-13T11:16:33.590Z,1266
2023-03-13T11:17:33.556Z,1266
2023-03-13T11:18:33.555Z,1266
2023-03-13T11:19:33.554Z,1266
2023-03-13T11:20:33.555Z,1266
2023-03-13T11:21:33.565Z,2343
2023-03-13T11:22:33.562Z,2343
2023-03-13T11:23:33.556Z,2343
2023-03-13T11:24:33.552Z,2343
2023-03-13T11:25:33.593Z,2343
2023-03-13T11:26:33.559Z,3040
2023-03-13T11:27:33.582Z,3040
2023-03-13T11:28:33.556Z,3040
2023-03-13T11:29:33.590Z,3040
2023-03-13T11:30:33.563Z,3040
2023-03-13T11:31:33.646Z,3465
2023-03-13T11:32:33.614Z,3338
2023-03-13T11:33:33.555Z,3277
2023-03-13T11:34:33.561Z,3861
2023-03-13T11:35:33.576Z,3551
2023-03-13T11:36:33.564Z,3551
2023-03-13T11:37:33.558Z,3551
2023-03-13T11:38:33.561Z,3551
2023-03-13T11:39:33.565Z,3551
2023-03-13T11:40:33.558Z,4370
2023-03-13T11:41:33.635Z,4987
2023-03-13T11:42:33.562Z,4987
2023-03-13T11:43:33.560Z,5818
2023-03-13T11:44:33.557Z,4923
2023-03-13T11:45:33.665Z,6189
2023-03-13T11:46:33.668Z,6442
2023-03-13T11:47:33.564Z,5297
2023-03-13T11:48:33.566Z,4684
2023-03-13T11:49:33.566Z,5950
2023-03-13T11:50:33.564Z,5950
2023-03-13T11:51:33.692Z,5950
2023-03-13T11:52:33.572Z,5950
2023-03-13T11:53:33.572Z,4651
2023-03-13T11:54:33.566Z,4651
2023-03-13T11:55:33.568Z,4651
2023-03-13T11:56:33.608Z,4651
2023-03-13T11:57:33.588Z,4651
2023-03-13T11:58:33.566Z,6677
2023-03-13T11:59:33.572Z,6677
2023-03-13T12:00:33.573Z,5129
2023-03-13T12:01:33.564Z,5157
2023-03-13T12:02:33.647Z,5072
2023-03-13T12:03:33.586Z,5072
2023-03-13T12:04:33.580Z,5072
2023-03-13T12:05:33.661Z,5072
2023-03-13T12:06:33.570Z,5072
2023-03-13T12:07:33.567Z,3907
2023-03-13T12:08:33.570Z,3907
2023-03-13T12:09:33.571Z,3907
2023-03-13T12:10:33.593Z,3907
2023-03-13T12:11:33.571Z,3907
2023-03-13T12:12:33.579Z,3963
2023-03-13T12:13:33.596Z,3963
2023-03-13T12:14:33.572Z,3963
2023-03-13T12:15:33.571Z,3963
2023-03-13T12:16:33.594Z,3963
2023-03-13T12:17:33.588Z,4624
2023-03-13T12:18:33.575Z,4624
2023-03-13T12:19:33.573Z,4624
2023-03-13T12:20:33.577Z,4624
2023-03-13T12:21:33.593Z,4624
2023-03-13T12:22:33.571Z,4814
2023-03-13T12:23:33.599Z,4516
2023-03-13T12:24:33.573Z,5316
2023-03-13T12:25:33.751Z,5731
2023-03-13T12:26:33.571Z,5731
2023-03-13T12:27:33.633Z,5828
2023-03-13T12:28:33.602Z,5113
2023-03-13T12:29:33.611Z,5765
2023-03-13T12:30:33.680Z,6428
2023-03-13T12:31:33.580Z,6460
2023-03-13T12:32:33.656Z,6613
2023-03-13T12:33:33.585Z,6339
2023-03-13T12:34:33.587Z,6525
2023-03-13T12:35:33.592Z,6479
2023-03-13T12:36:33.588Z,6326
2023-03-13T12:37:33.594Z,6653
2023-03-13T12:38:33.608Z,7389
2023-03-13T12:39:33.596Z,7389
2023-03-13T12:40:33.596Z,7389
2023-03-13T12:41:33.594Z,8052
2023-03-13T12:42:33.594Z,8052
2023-03-13T12:43:33.596Z,7612
2023-03-13T12:44:33.600Z,7746
2023-03-13T12:45:33.651Z,7411
2023-03-13T12:46:33.637Z,7588
2023-03-13T12:47:33.601Z,7097
2023-03-13T12:48:33.646Z,7071
2023-03-13T12:49:33.606Z,6825
2023-03-13T12:50:33.610Z,6445
2023-03-13T12:51:33.611Z,6320
2023-03-13T12:52:33.613Z,6492
2023-03-13T12:53:33.623Z,6194
2023-03-13T12:54:33.606Z,5700
2023-03-13T12:55:33.607Z,5760
2023-03-13T12:56:33.617Z,5848
2023-03-13T12:57:33.639Z,5886
2023-03-13T12:58:33.611Z,6485
2023-03-13T12:59:33.610Z,6605
2023-03-13T13:00:33.617Z,6605
2023-03-13T13:01:33.707Z,6539
2023-03-13T13:02:33.623Z,5450
2023-03-13T13:03:33.631Z,5450
2023-03-13T13:04:33.679Z,5450
2023-03-13T13:05:33.619Z,5450
2023-03-13T13:06:33.628Z,6875
2023-03-13T13:07:33.631Z,6875
2023-03-13T13:08:33.626Z,6875
2023-03-13T13:09:33.641Z,6875
2023-03-13T13:10:33.634Z,6875
2023-03-13T13:11:33.661Z,7389
2023-03-13T13:12:33.621Z,7389
2023-03-13T13:13:33.641Z,7389
2023-03-13T13:14:33.627Z,7389
2023-03-13T13:15:33.660Z,7389
2023-03-13T13:16:33.646Z,6917
2023-03-13T13:17:33.658Z,6961
2023-03-13T13:18:33.649Z,6961
2023-03-13T13:19:33.632Z,6961
2023-03-13T13:20:33.630Z,6961
2023-03-13T13:21:33.638Z,6961
2023-03-13T13:22:33.700Z,5083
2023-03-13T13:23:33.685Z,5083
2023-03-13T13:24:33.638Z,5083
2023-03-13T13:25:33.638Z,5083
2023-03-13T13:26:33.742Z,4396
2023-03-13T13:27:33.648Z,5421
2023-03-13T13:28:33.645Z,6180
2023-03-13T13:29:33.642Z,6016
2023-03-13T13:30:33.711Z,6016
2023-03-13T13:31:33.731Z,5772
2023-03-13T13:32:33.685Z,5772
2023-03-13T13:33:33.674Z,5772
2023-03-13T13:34:33.648Z,5772
2023-03-13T13:35:33.708Z,5772
2023-03-13T13:36:33.655Z,4558
2023-03-13T13:37:33.649Z,4558
2023-03-13T13:38:33.653Z,4558
2023-03-13T13:39:33.699Z,4558
2023-03-13T13:40:33.654Z,3371
2023-03-13T13:41:33.697Z,3191
2023-03-13T13:42:33.658Z,3191
2023-03-13T13:43:33.663Z,3191
2023-03-13T13:44:33.657Z,3191
2023-03-13T13:45:33.658Z,3191
2023-03-13T13:46:33.795Z,2918
2023-03-13T13:47:34.007Z,2918
2023-03-13T13:48:33.660Z,2918
2023-03-13T13:49:33.691Z,2918
2023-03-13T13:50:33.658Z,2918
2023-03-13T13:51:33.663Z,2366
2023-03-13T13:52:33.672Z,2317
2023-03-13T13:53:33.667Z,2345
2023-03-13T13:54:33.663Z,2345
2023-03-13T13:55:33.670Z,2345
2023-03-13T13:56:33.755Z,2345